sensor_id;sensor_type;location;lat;lon;timestamp;temperature;humidity
76211;DHT22;65003;49.518;11.280;2023-07-31T00:01:52;16.60;91.60
76211;DHT22;65003;49.518;11.280;2023-07-31T00:04:19;16.70;91.70
76211;DHT22;65003;49.518;11.280;2023-07-31T00:06:45;16.60;91.80
76211;DHT22;65003;49.518;11.280;2023-07-31T00:09:12;16.40;92.10
76211;DHT22;65003;49.518;11.280;2023-07-31T00:11:39;16.30;92.50
76211;DHT22;65003;49.518;11.280;2023-07-31T00:14:05;16.40;92.40
76211;DHT22;65003;49.518;11.280;2023-07-31T00:16:32;16.50;92.20
76211;DHT22;65003;49.518;11.280;2023-07-31T00:18:58;16.60;92.30
76211;DHT22;65003;49.518;11.280;2023-07-31T00:21:25;16.60;92.40
76211;DHT22;65003;49.518;11.280;2023-07-31T00:23:52;16.60;92.40
76211;DHT22;65003;49.518;11.280;2023-07-31T00:26:18;16.50;92.30
76211;DHT22;65003;49.518;11.280;2023-07-31T00:28:45;16.50;92.50
76211;DHT22;65003;49.518;11.280;2023-07-31T00:31:11;16.40;92.50
76211;DHT22;65003;49.518;11.280;2023-07-31T00:33:38;16.40;92.50
76211;DHT22;65003;49.518;11.280;2023-07-31T00:36:04;16.30;92.60
76211;DHT22;65003;49.518;11.280;2023-07-31T00:38:31;16.40;92.90
76211;DHT22;65003;49.518;11.280;2023-07-31T00:40:58;16.30;92.80
76211;DHT22;65003;49.518;11.280;2023-07-31T00:43:24;16.30;92.90
76211;DHT22;65003;49.518;11.280;2023-07-31T00:45:51;16.30;92.60
76211;DHT22;65003;49.518;11.280;2023-07-31T00:48:17;16.30;92.70
76211;DHT22;65003;49.518;11.280;2023-07-31T00:50:44;16.20;92.90
76211;DHT22;65003;49.518;11.280;2023-07-31T00:53:11;16.20;93.10
76211;DHT22;65003;49.518;11.280;2023-07-31T00:55:37;16.10;93.40
76211;DHT22;65003;49.518;11.280;2023-07-31T00:58:04;16.10;93.40
76211;DHT22;65003;49.518;11.280;2023-07-31T01:00:30;16.00;93.60
76211;DHT22;65003;49.518;11.280;2023-07-31T01:02:57;16.00;93.70
76211;DHT22;65003;49.518;11.280;2023-07-31T01:08:15;15.80;94.00
76211;DHT22;65003;49.518;11.280;2023-07-31T01:10:49;15.90;93.60
76211;DHT22;65003;49.518;11.280;2023-07-31T01:13:16;15.80;93.80
76211;DHT22;65003;49.518;11.280;2023-07-31T01:15:42;15.80;94.00
76211;DHT22;65003;49.518;11.280;2023-07-31T01:18:09;16.00;93.90
76211;DHT22;65003;49.518;11.280;2023-07-31T01:20:36;15.90;93.80
76211;DHT22;65003;49.518;11.280;2023-07-31T01:23:58;16.10;93.80
76211;DHT22;65003;49.518;11.280;2023-07-31T01:26:09;16.10;93.80
76211;DHT22;65003;49.518;11.280;2023-07-31T01:28:35;16.20;93.60
76211;DHT22;65003;49.518;11.280;2023-07-31T01:30:59;16.20;93.60
76211;DHT22;65003;49.518;11.280;2023-07-31T01:33:25;16.30;93.40
76211;DHT22;65003;49.518;11.280;2023-07-31T01:35:52;16.30;93.60
76211;DHT22;65003;49.518;11.280;2023-07-31T01:38:21;16.30;93.30
76211;DHT22;65003;49.518;11.280;2023-07-31T01:40:50;16.30;93.40
76211;DHT22;65003;49.518;11.280;2023-07-31T01:43:14;16.40;93.40
76211;DHT22;65003;49.518;11.280;2023-07-31T01:45:40;16.40;93.50
76211;DHT22;65003;49.518;11.280;2023-07-31T01:48:07;16.40;93.40
76211;DHT22;65003;49.518;11.280;2023-07-31T01:50:33;16.40;93.10
76211;DHT22;65003;49.518;11.280;2023-07-31T01:53:00;16.30;93.30
76211;DHT22;65003;49.518;11.280;2023-07-31T01:55:27;16.40;93.30
76211;DHT22;65003;49.518;11.280;2023-07-31T01:57:53;16.50;93.00
76211;DHT22;65003;49.518;11.280;2023-07-31T02:00:20;16.40;93.30
76211;DHT22;65003;49.518;11.280;2023-07-31T02:02:46;16.50;93.20
76211;DHT22;65003;49.518;11.280;2023-07-31T02:05:13;16.60;93.10
76211;DHT22;65003;49.518;11.280;2023-07-31T02:07:40;16.60;93.20
76211;DHT22;65003;49.518;11.280;2023-07-31T02:10:06;16.60;93.20
76211;DHT22;65003;49.518;11.280;2023-07-31T02:12:33;16.60;93.30
76211;DHT22;65003;49.518;11.280;2023-07-31T02:14:59;16.70;93.00
76211;DHT22;65003;49.518;11.280;2023-07-31T02:17:27;16.80;92.80
76211;DHT22;65003;49.518;11.280;2023-07-31T02:19:53;16.80;92.50
76211;DHT22;65003;49.518;11.280;2023-07-31T02:22:20;16.70;92.60
76211;DHT22;65003;49.518;11.280;2023-07-31T02:24:47;16.60;92.70
76211;DHT22;65003;49.518;11.280;2023-07-31T02:27:13;16.60;92.50
76211;DHT22;65003;49.518;11.280;2023-07-31T02:29:40;16.70;92.80
76211;DHT22;65003;49.518;11.280;2023-07-31T02:32:06;16.80;92.40
76211;DHT22;65003;49.518;11.280;2023-07-31T02:34:33;16.80;92.30
76211;DHT22;65003;49.518;11.280;2023-07-31T02:37:00;16.60;92.30
76211;DHT22;65003;49.518;11.280;2023-07-31T02:39:26;16.50;92.50
76211;DHT22;65003;49.518;11.280;2023-07-31T02:41:53;16.30;93.00
76211;DHT22;65003;49.518;11.280;2023-07-31T02:44:19;16.20;93.30
76211;DHT22;65003;49.518;11.280;2023-07-31T02:46:46;16.20;93.40
76211;DHT22;65003;49.518;11.280;2023-07-31T02:49:13;16.10;93.60
76211;DHT22;65003;49.518;11.280;2023-07-31T02:51:39;16.00;93.70
76211;DHT22;65003;49.518;11.280;2023-07-31T02:54:06;16.00;93.60
76211;DHT22;65003;49.518;11.280;2023-07-31T02:56:32;16.00;93.80
76211;DHT22;65003;49.518;11.280;2023-07-31T02:58:59;16.00;93.80
76211;DHT22;65003;49.518;11.280;2023-07-31T03:01:25;16.00;93.90
76211;DHT22;65003;49.518;11.280;2023-07-31T03:03:52;16.00;94.00
76211;DHT22;65003;49.518;11.280;2023-07-31T03:06:19;16.10;93.70
76211;DHT22;65003;49.518;11.280;2023-07-31T03:08:45;16.10;93.70
76211;DHT22;65003;49.518;11.280;2023-07-31T03:11:12;16.10;93.80
76211;DHT22;65003;49.518;11.280;2023-07-31T03:13:38;16.10;93.70
76211;DHT22;65003;49.518;11.280;2023-07-31T03:16:05;16.20;93.50
76211;DHT22;65003;49.518;11.280;2023-07-31T03:18:32;16.40;93.10
76211;DHT22;65003;49.518;11.280;2023-07-31T03:20:58;15.80;92.70
76211;DHT22;65003;49.518;11.280;2023-07-31T03:23:25;16.40;93.10
76211;DHT22;65003;49.518;11.280;2023-07-31T03:25:56;16.30;93.20
76211;DHT22;65003;49.518;11.280;2023-07-31T03:28:22;16.30;93.30
76211;DHT22;65003;49.518;11.280;2023-07-31T03:30:49;16.30;93.30
76211;DHT22;65003;49.518;11.280;2023-07-31T03:33:15;16.30;93.10
76211;DHT22;65003;49.518;11.280;2023-07-31T03:35:42;16.20;93.30
76211;DHT22;65003;49.518;11.280;2023-07-31T03:38:08;16.10;93.50
76211;DHT22;65003;49.518;11.280;2023-07-31T03:40:35;16.10;93.40
76211;DHT22;65003;49.518;11.280;2023-07-31T03:43:01;16.10;93.50
76211;DHT22;65003;49.518;11.280;2023-07-31T03:45:28;16.10;93.50
76211;DHT22;65003;49.518;11.280;2023-07-31T03:47:55;16.20;93.40
76211;DHT22;65003;49.518;11.280;2023-07-31T03:50:21;16.20;93.40
76211;DHT22;65003;49.518;11.280;2023-07-31T03:52:48;16.20;93.20
76211;DHT22;65003;49.518;11.280;2023-07-31T03:55:15;16.20;93.40
76211;DHT22;65003;49.518;11.280;2023-07-31T03:57:41;16.10;93.50
76211;DHT22;65003;49.518;11.280;2023-07-31T04:00:08;16.10;93.80
76211;DHT22;65003;49.518;11.280;2023-07-31T04:02:35;16.00;93.70
76211;DHT22;65003;49.518;11.280;2023-07-31T04:05:02;16.00;93.70
76211;DHT22;65003;49.518;11.280;2023-07-31T04:07:29;16.00;93.70
76211;DHT22;65003;49.518;11.280;2023-07-31T04:09:56;16.00;93.80
76211;DHT22;65003;49.518;11.280;2023-07-31T04:12:22;16.00;93.60
76211;DHT22;65003;49.518;11.280;2023-07-31T04:14:48;16.10;93.50
76211;DHT22;65003;49.518;11.280;2023-07-31T04:17:15;16.20;93.40
76211;DHT22;65003;49.518;11.280;2023-07-31T04:19:42;16.10;93.40
76211;DHT22;65003;49.518;11.280;2023-07-31T04:22:08;16.20;93.80
76211;DHT22;65003;49.518;11.280;2023-07-31T04:24:35;16.20;93.50
76211;DHT22;65003;49.518;11.280;2023-07-31T04:27:01;16.20;93.30
76211;DHT22;65003;49.518;11.280;2023-07-31T04:29:28;16.20;93.30
76211;DHT22;65003;49.518;11.280;2023-07-31T04:31:55;16.20;93.30
76211;DHT22;65003;49.518;11.280;2023-07-31T04:34:21;16.20;93.30
76211;DHT22;65003;49.518;11.280;2023-07-31T04:36:48;16.20;93.40
76211;DHT22;65003;49.518;11.280;2023-07-31T04:39:14;16.20;93.50
76211;DHT22;65003;49.518;11.280;2023-07-31T04:41:41;16.20;93.40
76211;DHT22;65003;49.518;11.280;2023-07-31T04:44:08;16.30;93.30
76211;DHT22;65003;49.518;11.280;2023-07-31T04:46:35;16.30;93.50
76211;DHT22;65003;49.518;11.280;2023-07-31T04:49:01;16.30;93.40
76211;DHT22;65003;49.518;11.280;2023-07-31T04:51:28;16.30;93.60
76211;DHT22;65003;49.518;11.280;2023-07-31T04:53:55;16.30;93.50
76211;DHT22;65003;49.518;11.280;2023-07-31T04:56:21;16.30;93.50
76211;DHT22;65003;49.518;11.280;2023-07-31T04:58:48;16.40;93.70
76211;DHT22;65003;49.518;11.280;2023-07-31T05:01:14;16.40;93.40
76211;DHT22;65003;49.518;11.280;2023-07-31T05:03:41;16.50;93.30
76211;DHT22;65003;49.518;11.280;2023-07-31T05:06:08;16.60;93.20
76211;DHT22;65003;49.518;11.280;2023-07-31T05:08:34;16.60;92.80
76211;DHT22;65003;49.518;11.280;2023-07-31T05:11:01;16.70;93.00
76211;DHT22;65003;49.518;11.280;2023-07-31T05:13:27;16.70;92.80
76211;DHT22;65003;49.518;11.280;2023-07-31T05:15:54;16.80;93.00
76211;DHT22;65003;49.518;11.280;2023-07-31T05:18:21;16.80;92.70
76211;DHT22;65003;49.518;11.280;2023-07-31T05:20:47;16.90;92.60
76211;DHT22;65003;49.518;11.280;2023-07-31T05:23:14;16.90;92.70
76211;DHT22;65003;49.518;11.280;2023-07-31T05:25:40;17.00;92.70
76211;DHT22;65003;49.518;11.280;2023-07-31T05:28:07;17.00;92.60
76211;DHT22;65003;49.518;11.280;2023-07-31T05:30:33;17.10;92.40
76211;DHT22;65003;49.518;11.280;2023-07-31T05:33:00;17.10;92.20
76211;DHT22;65003;49.518;11.280;2023-07-31T05:35:27;17.10;92.10
76211;DHT22;65003;49.518;11.280;2023-07-31T05:37:53;17.10;92.40
76211;DHT22;65003;49.518;11.280;2023-07-31T05:40:20;17.20;92.50
76211;DHT22;65003;49.518;11.280;2023-07-31T05:42:46;17.20;92.30
76211;DHT22;65003;49.518;11.280;2023-07-31T05:45:13;17.30;92.30
76211;DHT22;65003;49.518;11.280;2023-07-31T05:47:39;17.40;92.00
76211;DHT22;65003;49.518;11.280;2023-07-31T05:50:06;17.30;92.30
76211;DHT22;65003;49.518;11.280;2023-07-31T05:52:33;17.30;92.10
76211;DHT22;65003;49.518;11.280;2023-07-31T05:54:59;17.40;92.40
76211;DHT22;65003;49.518;11.280;2023-07-31T05:57:26;17.40;92.00
76211;DHT22;65003;49.518;11.280;2023-07-31T05:59:53;17.50;91.90
76211;DHT22;65003;49.518;11.280;2023-07-31T06:02:19;17.50;91.80
76211;DHT22;65003;49.518;11.280;2023-07-31T06:04:46;17.50;91.80
76211;DHT22;65003;49.518;11.280;2023-07-31T06:07:12;17.50;91.90
76211;DHT22;65003;49.518;11.280;2023-07-31T06:09:39;17.60;91.90
76211;DHT22;65003;49.518;11.280;2023-07-31T06:12:06;18.00;91.80
76211;DHT22;65003;49.518;11.280;2023-07-31T06:14:32;17.80;91.30
76211;DHT22;65003;49.518;11.280;2023-07-31T06:16:59;17.90;91.00
76211;DHT22;65003;49.518;11.280;2023-07-31T06:19:26;18.00;91.10
76211;DHT22;65003;49.518;11.280;2023-07-31T06:21:52;18.10;91.00
76211;DHT22;65003;49.518;11.280;2023-07-31T06:24:19;18.20;90.60
76211;DHT22;65003;49.518;11.280;2023-07-31T06:26:45;18.20;90.40
76211;DHT22;65003;49.518;11.280;2023-07-31T06:29:12;18.20;90.40
76211;DHT22;65003;49.518;11.280;2023-07-31T06:31:38;18.20;90.60
76211;DHT22;65003;49.518;11.280;2023-07-31T06:34:05;18.20;90.50
76211;DHT22;65003;49.518;11.280;2023-07-31T06:36:32;18.20;90.60
76211;DHT22;65003;49.518;11.280;2023-07-31T06:38:58;18.10;90.60
76211;DHT22;65003;49.518;11.280;2023-07-31T06:41:25;18.10;90.60
76211;DHT22;65003;49.518;11.280;2023-07-31T06:43:51;18.20;90.50
76211;DHT22;65003;49.518;11.280;2023-07-31T06:46:18;18.30;90.60
76211;DHT22;65003;49.518;11.280;2023-07-31T06:48:45;18.30;90.20
76211;DHT22;65003;49.518;11.280;2023-07-31T06:51:11;18.40;90.00
76211;DHT22;65003;49.518;11.280;2023-07-31T06:53:38;18.50;89.80
76211;DHT22;65003;49.518;11.280;2023-07-31T06:56:04;18.60;89.30
76211;DHT22;65003;49.518;11.280;2023-07-31T06:58:31;18.70;89.20
76211;DHT22;65003;49.518;11.280;2023-07-31T07:00:57;18.70;89.20
76211;DHT22;65003;49.518;11.280;2023-07-31T07:03:24;18.90;88.70
76211;DHT22;65003;49.518;11.280;2023-07-31T07:05:51;19.00;88.30
76211;DHT22;65003;49.518;11.280;2023-07-31T07:08:17;19.10;86.90
76211;DHT22;65003;49.518;11.280;2023-07-31T07:10:44;19.20;87.50
76211;DHT22;65003;49.518;11.280;2023-07-31T07:13:10;19.20;86.90
76211;DHT22;65003;49.518;11.280;2023-07-31T07:15:37;19.20;86.00
76211;DHT22;65003;49.518;11.280;2023-07-31T07:18:04;19.30;86.80
76211;DHT22;65003;49.518;11.280;2023-07-31T07:20:30;19.30;86.60
76211;DHT22;65003;49.518;11.280;2023-07-31T07:22:57;19.20;87.20
76211;DHT22;65003;49.518;11.280;2023-07-31T07:25:23;19.30;86.40
76211;DHT22;65003;49.518;11.280;2023-07-31T07:27:50;19.40;86.60
76211;DHT22;65003;49.518;11.280;2023-07-31T07:30:17;19.50;85.80
76211;DHT22;65003;49.518;11.280;2023-07-31T07:32:43;19.60;85.70
76211;DHT22;65003;49.518;11.280;2023-07-31T07:35:10;19.70;85.90
76211;DHT22;65003;49.518;11.280;2023-07-31T07:37:36;19.90;84.60
76211;DHT22;65003;49.518;11.280;2023-07-31T07:40:03;20.00;85.20
76211;DHT22;65003;49.518;11.280;2023-07-31T07:42:30;20.20;83.90
76211;DHT22;65003;49.518;11.280;2023-07-31T07:44:56;20.20;84.30
76211;DHT22;65003;49.518;11.280;2023-07-31T07:47:23;20.40;83.30
76211;DHT22;65003;49.518;11.280;2023-07-31T07:49:49;20.50;82.90
76211;DHT22;65003;49.518;11.280;2023-07-31T07:52:16;20.40;81.90
76211;DHT22;65003;49.518;11.280;2023-07-31T07:54:43;20.30;82.30
76211;DHT22;65003;49.518;11.280;2023-07-31T07:57:09;20.20;82.30
76211;DHT22;65003;49.518;11.280;2023-07-31T07:59:36;20.10;82.90
76211;DHT22;65003;49.518;11.280;2023-07-31T08:02:03;20.00;83.60
76211;DHT22;65003;49.518;11.280;2023-07-31T08:04:30;20.00;83.80
76211;DHT22;65003;49.518;11.280;2023-07-31T08:06:56;20.00;83.90
76211;DHT22;65003;49.518;11.280;2023-07-31T08:09:22;20.00;83.80
76211;DHT22;65003;49.518;11.280;2023-07-31T08:11:49;20.10;83.10
76211;DHT22;65003;49.518;11.280;2023-07-31T08:14:16;20.10;82.70
76211;DHT22;65003;49.518;11.280;2023-07-31T08:16:42;20.20;83.20
76211;DHT22;65003;49.518;11.280;2023-07-31T08:19:09;20.50;83.20
76211;DHT22;65003;49.518;11.280;2023-07-31T08:21:35;20.80;81.10
76211;DHT22;65003;49.518;11.280;2023-07-31T08:24:02;20.90;80.40
76211;DHT22;65003;49.518;11.280;2023-07-31T08:26:29;21.10;79.90
76211;DHT22;65003;49.518;11.280;2023-07-31T08:28:55;21.20;79.30
76211;DHT22;65003;49.518;11.280;2023-07-31T08:31:22;21.50;78.10
76211;DHT22;65003;49.518;11.280;2023-07-31T08:33:48;21.90;77.50
76211;DHT22;65003;49.518;11.280;2023-07-31T08:36:15;22.50;74.10
76211;DHT22;65003;49.518;11.280;2023-07-31T08:38:41;22.80;73.70
76211;DHT22;65003;49.518;11.280;2023-07-31T08:41:08;23.00;73.40
76211;DHT22;65003;49.518;11.280;2023-07-31T08:43:35;23.50;71.30
76211;DHT22;65003;49.518;11.280;2023-07-31T08:46:01;25.20;66.90
76211;DHT22;65003;49.518;11.280;2023-07-31T08:48:28;27.70;58.60
76211;DHT22;65003;49.518;11.280;2023-07-31T08:50:54;29.90;52.40
76211;DHT22;65003;49.518;11.280;2023-07-31T08:53:21;31.20;47.70
76211;DHT22;65003;49.518;11.280;2023-07-31T08:55:48;32.60;44.70
76211;DHT22;65003;49.518;11.280;2023-07-31T08:58:15;33.20;40.80
76211;DHT22;65003;49.518;11.280;2023-07-31T09:00:41;33.50;40.20
76211;DHT22;65003;49.518;11.280;2023-07-31T09:03:09;34.60;37.10
76211;DHT22;65003;49.518;11.280;2023-07-31T09:05:36;34.90;36.80
76211;DHT22;65003;49.518;11.280;2023-07-31T09:08:02;35.70;34.70
76211;DHT22;65003;49.518;11.280;2023-07-31T09:10:28;37.20;32.40
76211;DHT22;65003;49.518;11.280;2023-07-31T09:12:55;38.60;30.30
76211;DHT22;65003;49.518;11.280;2023-07-31T09:15:21;38.80;30.50
76211;DHT22;65003;49.518;11.280;2023-07-31T09:17:48;38.10;30.40
76211;DHT22;65003;49.518;11.280;2023-07-31T09:20:16;36.00;33.00
76211;DHT22;65003;49.518;11.280;2023-07-31T09:22:42;34.10;35.70
76211;DHT22;65003;49.518;11.280;2023-07-31T09:25:19;32.70;37.20
76211;DHT22;65003;49.518;11.280;2023-07-31T09:27:54;31.80;38.60
76211;DHT22;65003;49.518;11.280;2023-07-31T09:30:19;33.40;37.80
76211;DHT22;65003;49.518;11.280;2023-07-31T09:32:46;35.60;34.30
76211;DHT22;65003;49.518;11.280;2023-07-31T09:35:22;39.20;29.80
76211;DHT22;65003;49.518;11.280;2023-07-31T09:37:50;40.20;28.20
76211;DHT22;65003;49.518;11.280;2023-07-31T09:40:29;40.40;28.40
76211;DHT22;65003;49.518;11.280;2023-07-31T09:42:58;40.60;27.70
76211;DHT22;65003;49.518;11.280;2023-07-31T09:45:24;37.90;29.00
76211;DHT22;65003;49.518;11.280;2023-07-31T09:47:50;36.50;30.50
76211;DHT22;65003;49.518;11.280;2023-07-31T09:50:17;35.40;32.70
76211;DHT22;65003;49.518;11.280;2023-07-31T09:52:44;33.70;34.90
76211;DHT22;65003;49.518;11.280;2023-07-31T09:55:10;32.70;36.90
76211;DHT22;65003;49.518;11.280;2023-07-31T09:57:39;32.40;37.70
76211;DHT22;65003;49.518;11.280;2023-07-31T10:00:06;31.20;39.10
76211;DHT22;65003;49.518;11.280;2023-07-31T10:02:33;31.20;39.70
76211;DHT22;65003;49.518;11.280;2023-07-31T10:05:01;31.10;39.90
76211;DHT22;65003;49.518;11.280;2023-07-31T10:07:26;30.50;40.90
76211;DHT22;65003;49.518;11.280;2023-07-31T10:09:53;30.80;41.80
76211;DHT22;65003;49.518;11.280;2023-07-31T10:12:19;29.50;41.70
76211;DHT22;65003;49.518;11.280;2023-07-31T10:14:47;28.60;43.80
76211;DHT22;65003;49.518;11.280;2023-07-31T10:17:13;28.60;44.40
76211;DHT22;65003;49.518;11.280;2023-07-31T10:19:40;28.60;45.00
76211;DHT22;65003;49.518;11.280;2023-07-31T10:22:07;28.70;45.40
76211;DHT22;65003;49.518;11.280;2023-07-31T10:24:33;28.20;47.50
76211;DHT22;65003;49.518;11.280;2023-07-31T10:27:00;27.30;49.70
76211;DHT22;65003;49.518;11.280;2023-07-31T10:29:26;26.70;49.50
76211;DHT22;65003;49.518;11.280;2023-07-31T10:31:53;26.20;51.20
76211;DHT22;65003;49.518;11.280;2023-07-31T10:34:20;25.80;71.00
76211;DHT22;65003;49.518;11.280;2023-07-31T10:36:46;25.70;67.50
76211;DHT22;65003;49.518;11.280;2023-07-31T10:39:33;25.70;66.90
76211;DHT22;65003;49.518;11.280;2023-07-31T10:41:59;25.50;54.80
76211;DHT22;65003;49.518;11.280;2023-07-31T10:44:26;25.70;55.00
76211;DHT22;65003;49.518;11.280;2023-07-31T10:46:54;26.00;53.30
76211;DHT22;65003;49.518;11.280;2023-07-31T10:49:21;25.80;53.20
76211;DHT22;65003;49.518;11.280;2023-07-31T10:51:47;25.60;55.00
76211;DHT22;65003;49.518;11.280;2023-07-31T10:54:15;25.50;58.70
76211;DHT22;65003;49.518;11.280;2023-07-31T10:56:44;25.40;71.00
76211;DHT22;65003;49.518;11.280;2023-07-31T10:59:07;25.10;54.50
76211;DHT22;65003;49.518;11.280;2023-07-31T11:01:52;25.50;55.00
76211;DHT22;65003;49.518;11.280;2023-07-31T11:04:27;25.70;54.70
76211;DHT22;65003;49.518;11.280;2023-07-31T11:06:56;26.20;53.20
76211;DHT22;65003;49.518;11.280;2023-07-31T11:09:22;26.60;52.40
76211;DHT22;65003;49.518;11.280;2023-07-31T11:11:49;26.60;51.20
76211;DHT22;65003;49.518;11.280;2023-07-31T11:14:16;26.50;51.20
76211;DHT22;65003;49.518;11.280;2023-07-31T11:16:42;25.90;52.10
76211;DHT22;65003;49.518;11.280;2023-07-31T11:19:09;25.70;54.00
76211;DHT22;65003;49.518;11.280;2023-07-31T11:21:35;25.60;52.90
76211;DHT22;65003;49.518;11.280;2023-07-31T11:24:02;25.70;54.20
76211;DHT22;65003;49.518;11.280;2023-07-31T11:26:29;26.10;53.10
76211;DHT22;65003;49.518;11.280;2023-07-31T11:28:55;26.10;52.60
76211;DHT22;65003;49.518;11.280;2023-07-31T11:31:22;26.00;53.20
76211;DHT22;65003;49.518;11.280;2023-07-31T11:33:48;25.90;53.30
76211;DHT22;65003;49.518;11.280;2023-07-31T11:36:17;25.70;53.00
76211;DHT22;65003;49.518;11.280;2023-07-31T11:38:43;25.20;53.80
76211;DHT22;65003;49.518;11.280;2023-07-31T11:41:10;24.70;54.60
76211;DHT22;65003;49.518;11.280;2023-07-31T11:43:36;24.20;56.00
76211;DHT22;65003;49.518;11.280;2023-07-31T11:46:03;23.90;64.70
76211;DHT22;65003;49.518;11.280;2023-07-31T11:48:31;23.70;58.00
76211;DHT22;65003;49.518;11.280;2023-07-31T11:50:58;23.80;58.50
76211;DHT22;65003;49.518;11.280;2023-07-31T11:53:29;23.80;57.80
76211;DHT22;65003;49.518;11.280;2023-07-31T11:55:55;23.70;82.50
76211;DHT22;65003;49.518;11.280;2023-07-31T11:58:21;23.60;82.40
76211;DHT22;65003;49.518;11.280;2023-07-31T12:00:48;23.50;59.10
76211;DHT22;65003;49.518;11.280;2023-07-31T12:03:15;23.40;59.40
76211;DHT22;65003;49.518;11.280;2023-07-31T12:05:41;23.30;59.60
76211;DHT22;65003;49.518;11.280;2023-07-31T12:08:10;23.20;60.00
76211;DHT22;65003;49.518;11.280;2023-07-31T12:10:37;23.10;90.60
76211;DHT22;65003;49.518;11.280;2023-07-31T12:13:04;23.00;91.20
76211;DHT22;65003;49.518;11.280;2023-07-31T12:15:35;22.90;91.70
76211;DHT22;65003;49.518;11.280;2023-07-31T12:18:04;22.90;91.90
76211;DHT22;65003;49.518;11.280;2023-07-31T12:20:31;23.00;91.90
76211;DHT22;65003;49.518;11.280;2023-07-31T12:22:57;23.10;91.80
76211;DHT22;65003;49.518;11.280;2023-07-31T12:25:28;23.20;91.50
76211;DHT22;65003;49.518;11.280;2023-07-31T12:27:50;23.20;91.70
76211;DHT22;65003;49.518;11.280;2023-07-31T12:30:27;23.30;91.40
76211;DHT22;65003;49.518;11.280;2023-07-31T12:32:53;23.40;91.00
76211;DHT22;65003;49.518;11.280;2023-07-31T12:35:20;23.50;91.00
76211;DHT22;65003;49.518;11.280;2023-07-31T12:37:47;23.50;90.70
76211;DHT22;65003;49.518;11.280;2023-07-31T12:40:13;23.30;90.80
76211;DHT22;65003;49.518;11.280;2023-07-31T12:42:40;23.20;91.10
76211;DHT22;65003;49.518;11.280;2023-07-31T12:45:07;23.20;91.70
76211;DHT22;65003;49.518;11.280;2023-07-31T12:47:33;23.20;91.70
76211;DHT22;65003;49.518;11.280;2023-07-31T12:50:00;23.40;91.50
76211;DHT22;65003;49.518;11.280;2023-07-31T12:52:26;23.50;91.00
76211;DHT22;65003;49.518;11.280;2023-07-31T12:54:53;23.70;90.60
76211;DHT22;65003;49.518;11.280;2023-07-31T12:57:20;23.90;90.90
76211;DHT22;65003;49.518;11.280;2023-07-31T12:59:46;24.00;90.70
76211;DHT22;65003;49.518;11.280;2023-07-31T13:02:13;24.10;90.10
76211;DHT22;65003;49.518;11.280;2023-07-31T13:04:39;24.00;90.00
76211;DHT22;65003;49.518;11.280;2023-07-31T13:07:06;23.90;90.00
76211;DHT22;65003;49.518;11.280;2023-07-31T13:09:33;23.70;89.90
76211;DHT22;65003;49.518;11.280;2023-07-31T13:11:59;23.70;90.20
76211;DHT22;65003;49.518;11.280;2023-07-31T13:14:26;23.80;90.70
76211;DHT22;65003;49.518;11.280;2023-07-31T13:16:52;23.90;90.00
76211;DHT22;65003;49.518;11.280;2023-07-31T13:19:19;24.00;90.30
76211;DHT22;65003;49.518;11.280;2023-07-31T13:21:45;24.10;91.30
76211;DHT22;65003;49.518;11.280;2023-07-31T13:24:14;24.30;93.10
76211;DHT22;65003;49.518;11.280;2023-07-31T13:26:41;24.30;92.80
76211;DHT22;65003;49.518;11.280;2023-07-31T13:29:07;24.30;91.50
76211;DHT22;65003;49.518;11.280;2023-07-31T13:31:34;24.30;91.60
76211;DHT22;65003;49.518;11.280;2023-07-31T13:34:00;24.40;91.10
76211;DHT22;65003;49.518;11.280;2023-07-31T13:36:27;24.10;90.80
76211;DHT22;65003;49.518;11.280;2023-07-31T13:38:54;24.10;91.70
76211;DHT22;65003;49.518;11.280;2023-07-31T13:41:20;24.10;91.00
76211;DHT22;65003;49.518;11.280;2023-07-31T13:43:47;24.20;91.10
76211;DHT22;65003;49.518;11.280;2023-07-31T13:46:13;24.20;91.70
76211;DHT22;65003;49.518;11.280;2023-07-31T13:48:40;24.30;90.70
76211;DHT22;65003;49.518;11.280;2023-07-31T13:53:33;24.30;90.90
76211;DHT22;65003;49.518;11.280;2023-07-31T13:56:01;24.50;90.90
76211;DHT22;65003;49.518;11.280;2023-07-31T13:58:27;24.60;90.90
76211;DHT22;65003;49.518;11.280;2023-07-31T14:00:54;24.60;90.20
76211;DHT22;65003;49.518;11.280;2023-07-31T14:03:21;24.50;90.90
76211;DHT22;65003;49.518;11.280;2023-07-31T14:05:47;24.50;91.40
76211;DHT22;65003;49.518;11.280;2023-07-31T14:08:14;24.60;91.50
76211;DHT22;65003;49.518;11.280;2023-07-31T14:10:40;24.70;91.30
76211;DHT22;65003;49.518;11.280;2023-07-31T14:15:34;24.80;89.70
76211;DHT22;65003;49.518;11.280;2023-07-31T14:18:00;24.70;90.00
76211;DHT22;65003;49.518;11.280;2023-07-31T14:20:27;24.50;89.80
76211;DHT22;65003;49.518;11.280;2023-07-31T14:22:53;24.50;89.90
76211;DHT22;65003;49.518;11.280;2023-07-31T14:25:20;24.30;90.30
76211;DHT22;65003;49.518;11.280;2023-07-31T14:27:47;24.20;90.40
76211;DHT22;65003;49.518;11.280;2023-07-31T14:30:13;24.20;90.80
76211;DHT22;65003;49.518;11.280;2023-07-31T14:32:42;24.10;90.70
76211;DHT22;65003;49.518;11.280;2023-07-31T14:35:08;24.10;90.90
76211;DHT22;65003;49.518;11.280;2023-07-31T14:37:39;24.20;90.60
76211;DHT22;65003;49.518;11.280;2023-07-31T14:40:05;24.20;91.00
76211;DHT22;65003;49.518;11.280;2023-07-31T14:42:32;24.10;90.40
76211;DHT22;65003;49.518;11.280;2023-07-31T14:44:59;24.00;90.90
76211;DHT22;65003;49.518;11.280;2023-07-31T14:47:25;23.90;91.00
76211;DHT22;65003;49.518;11.280;2023-07-31T14:49:52;23.80;91.00
76211;DHT22;65003;49.518;11.280;2023-07-31T14:52:18;23.70;91.30
76211;DHT22;65003;49.518;11.280;2023-07-31T14:54:45;23.60;91.30
76211;DHT22;65003;49.518;11.280;2023-07-31T14:57:12;23.60;91.50
76211;DHT22;65003;49.518;11.280;2023-07-31T14:59:39;23.60;91.50
76211;DHT22;65003;49.518;11.280;2023-07-31T15:02:06;23.60;92.10
76211;DHT22;65003;49.518;11.280;2023-07-31T15:04:32;23.60;91.40
76211;DHT22;65003;49.518;11.280;2023-07-31T15:06:59;23.50;90.30
76211;DHT22;65003;49.518;11.280;2023-07-31T15:09:25;23.50;90.90
76211;DHT22;65003;49.518;11.280;2023-07-31T15:11:52;23.50;91.70
76211;DHT22;65003;49.518;11.280;2023-07-31T15:14:19;23.30;60.00
76211;DHT22;65003;49.518;11.280;2023-07-31T15:16:45;23.20;60.50
76211;DHT22;65003;49.518;11.280;2023-07-31T15:19:12;23.20;69.50
76211;DHT22;65003;49.518;11.280;2023-07-31T15:21:38;23.10;65.60